This is the latest recevied weather packets stored in our database for station/object KJ5IMV-9. If no packets are shown the sender has not sent any weather packets the latest 10 day(s).
| Time | Temp. | Humidity | Pressure | Rain* | Wind** | Luminosity | Snow |
|---|---|---|---|---|---|---|---|
| 1788038526 | 36.67° C | 52% | 1009.3 hPa | - | - | - | - |
| 1788038225 | 36.67° C | 54% | 1009.3 hPa | - | - | - | - |
| 1788037920 | 36.67° C | 56% | 1009.4 hPa | - | - | - | - |
| 1788036416 | 36.11° C | 57% | 1009.7 hPa | - | - | - | - |
| 1788033098 | 35° C | 63% | 1010.7 hPa | - | - | - | - |
| 1788024962 | 33.89° C | 71% | 1012.5 hPa | - | - | - | - |
| 1788024358 | 33.33° C | 71% | 1012.5 hPa | - | - | - | - |
| 1788022249 | 32.78° C | 75% | 1012.9 hPa | - | - | - | - |
| 1787764537 | 35° C | 67% | 1011.3 hPa | - | - | - | - |
| 1787759113 | 31.67° C | 78% | 1012.1 hPa | - | - | - | - |
| 1787757304 | 31.67° C | 81% | 1012.2 hPa | - | - | - | - |
| 1787756702 | 31.67° C | 84% | 1012 hPa | - | - | - | - |
| 1787756400 | 31.11° C | 84% | 1012.1 hPa | - | - | - | - |
| 1787755495 | 31.11° C | 85% | 1012 hPa | - | - | - | - |
| 1787754291 | 30.56° C | 88% | 1012 hPa | - | - | - | - |
| 1787751878 | 29.44° C | 90% | 1011.8 hPa | - | - | - | - |
| 1787749770 | 27.22° C | 96% | 1011.6 hPa | - | - | - | - |
| 1787722042 | 28.33° C | 86% | 1010.7 hPa | - | - | - | - |
| 1787721739 | 28.33° C | 86% | 1010.6 hPa | - | - | - | - |
| 1787721438 | 28.33° C | 85% | 1010.5 hPa | - | - | - | - |
| 1787719031 | 28.89° C | 82% | 1010.7 hPa | - | - | - | - |
| 1787718425 | 28.89° C | 82% | 1010.5 hPa | - | - | - | - |
| 1787717823 | 29.44° C | 81% | 1010.5 hPa | - | - | - | - |
| 1787717523 | 29.44° C | 80% | 1010.6 hPa | - | - | - | - |
| 1787717521 | 29.44° C | - | - | - | - | - | - |
* Rain since midnight (hover to see other rain measurements)
** Current wind speed in m/s (hover to see current wind gust speed)